Flight Track Log - Related Links

Times and Time Zones

All times are in EDT time to prevent confusion due to time zone crossing. See the SWA407 flight status page for this flight to view local times or setup timezone preferences in your user account.

Time Position Orientation Groundspeed Altitude Reporting Facility
EDT Latitude Longitude Course Direction KTS MPH feet Rate Location/Type
Sat 01:13:44 AM 32.7717 -117.2831 291° West 227 261 4,300  Level Los Angeles Center
Sat 01:14:45 AM 32.8153 -117.3528 307° West 258 297 8,200 3,984 Climbing Los Angeles Center
Sat 01:15:46 AM 32.8717 -117.4236 313° West 287 330 12,400 3,366 Climbing Los Angeles Center
Sat 01:16:48 AM 32.9300 -117.4997 312° West 304 350 15,100 2,800 Climbing Los Angeles Center
Sat 01:18:01 AM 32.9911 -117.5814 312° West 324 373 18,700 3,000 Climbing Los Angeles Center
Sat 01:19:02 AM 33.1014 -117.6503 332° Northwest 357 411 21,800 2,341 Climbing Los Angeles Center
Sat 01:20:04 AM 33.2103 -117.6656 353° North 392 451 23,500 1,951 Climbing Los Angeles Center
Sat 01:21:05 AM 33.3300 -117.6806 354° North 429 494 25,800 2,213 Climbing Los Angeles Center
Sat 01:22:06 AM 33.4508 -117.6983 353° North 439 505 28,000 1,574 Climbing Los Angeles Center
Sat 01:23:07 AM 33.5719 -117.7156 353° North 440 506 29,000 492 Climbing Los Angeles Center
Sat 01:24:08 AM 33.6919 -117.7322 353° North 438 504 29,000  Level Los Angeles Center
Sat 01:25:10 AM 33.8111 -117.7453 355° North 434 499 29,000  Level Los Angeles Center
Sat 01:26:11 AM 33.9292 -117.6519 33° Northeast 431 496 29,000  Level Los Angeles Center
Sat 01:27:12 AM 34.0214 -117.5578 40° Northeast 435 501 29,000  Level Los Angeles Center
Sat 01:28:13 AM 34.1136 -117.4625 41° Northeast 437 503 29,000  Level Los Angeles Center
Sat 01:29:14 AM 34.2050 -117.3669 41° Northeast 438 504 29,000  Level Los Angeles Center
Sat 01:30:15 AM 34.2975 -117.2714 40° Northeast 439 505 29,000  Level Los Angeles Center
Sat 01:31:16 AM 34.3908 -117.1753 40° Northeast 442 509 29,000  Level Los Angeles Center
Sat 01:32:17 AM 34.4783 -117.0842 41° Northeast 441 507 29,000  Level Los Angeles Center
Sat 01:33:18 AM 34.5714 -116.9861 41° Northeast 444 511 29,000  Level Los Angeles Center
Sat 01:34:19 AM 34.6833 -116.8703 40° Northeast 444 511 29,000 -246 Level Los Angeles Center
Sat 01:35:20 AM 34.7750 -116.7722 41° Northeast 443 510 28,500 -689 Descending Los Angeles Center
Sat 01:36:21 AM 34.8672 -116.6756 41° Northeast 440 506 27,600 -984 Descending Los Angeles Center
Sat 01:37:22 AM 34.9597 -116.5775 41° Northeast 443 510 26,500 -1,033 Descending Los Angeles Center
Sat 01:38:23 AM 35.0436 -116.4731 46° Northeast 436 502 25,500 -984 Descending Los Angeles Center
Sat 01:39:24 AM 35.1278 -116.3672 46° Northeast 435 501 24,500 -984 Descending Los Angeles Center
Sat 01:40:25 AM 35.2111 -116.2644 45° Northeast 430 495 23,500 -1,131 Descending Los Angeles Center
Sat 01:41:26 AM 35.2917 -116.1639 46° Northeast 418 481 22,200 -1,721 Descending Los Angeles Center
Sat 01:42:27 AM 35.3697 -116.0625 47° Northeast 410 472 20,000 -2,308 Descending Los Angeles Center
Sat 01:43:23 AM 35.4469 -115.9669 45° Northeast 411 473 17,700 -2,459 Descending Los Angeles Center
Sat 01:44:29 AM 35.5372 -115.8478 47° Northeast 400 460 15,000 -2,126 Descending Los Angeles Center
Sat 01:45:30 AM 35.6100 -115.7611 44° Northeast 375 432 13,200 -1,131 Descending Los Angeles Center
Sat 01:46:31 AM 35.6772 -115.6653 49° Northeast 370 426 12,700 -787 Descending Los Angeles Center
Sat 01:47:32 AM 35.7369 -115.5575 56° Northeast 364 419 11,600 -836 Descending Los Angeles Center
Sat 01:48:33 AM 35.7931 -115.4617 54° Northeast 364 419 11,000 -639 Descending Los Angeles Center
Sat 01:49:34 AM 35.8497 -115.3642 54° Northeast 360 414 10,300 -850 Descending Los Angeles Center
Sat 01:50:40 AM 35.9067 -115.2636 55° Northeast 290 334 9,200 -1,000 Descending Los Angeles Center
Sat 01:51:46 AM 35.9539 -115.1819 54° Northeast 276 318 8,100 -793 Descending Los Angeles Center
Sat 01:52:41 AM 35.9894 -115.1169 56° Northeast 239 275 7,600 -689 Descending Los Angeles Center
Sat 01:53:48 AM 36.0081 -115.0444 72° East 199 229 6,700 -990 Descending Los Angeles Center
Sat 01:54:24 AM 36.0050 -115.0003 95° East 204 235 5,900 -1,161 Descending Los Angeles Center
Sat 01:54:50 AM 36.0114 -114.9725 74° East 206 237 5,500 -822 Descending Los Angeles Center
Sat 01:55:37 AM 36.0536 -114.9761 356° North 184 212 4,900 -1,009 Descending Los Angeles Center
Sat 01:56:37 AM 36.0742 -115.0306 295° West 160 184 3,700 -1,096 Descending Los Angeles Center
Sat 01:57:32 AM 36.0758 -115.0778 273° West 151 174 2,800 -880 Descending Los Angeles Center
Sat 01:57:52 AM 36.0778 -115.0889 282° West 160 184 2,600 -593 Descending Los Angeles Center
Sat 01:58:53 AM 36.0767 -115.1328 268° West 144 166 2,000 -590 Descending Los Angeles Center
Sat 02:00:00 AM 36.0667 -115.1500 270° West  Level FlightAware Approximate

Login

Don't have an account? Register now (free) for customized features, flight alerts, and more!